sensor_id;sensor_type;location;lat;lon;timestamp;pressure;altitude;pressure_sealevel;temperature;humidity
44751;BME280;30477;48.224;11.470;2023-04-27T00:00:56;96099.09;;;7.72;63.14
44751;BME280;30477;48.224;11.470;2023-04-27T00:03:22;96088.56;;;7.76;63.24
44751;BME280;30477;48.224;11.470;2023-04-27T00:05:47;96094.22;;;7.69;63.49
44751;BME280;30477;48.224;11.470;2023-04-27T00:08:12;96092.81;;;7.65;63.30
44751;BME280;30477;48.224;11.470;2023-04-27T00:10:38;96086.75;;;7.55;63.34
44751;BME280;30477;48.224;11.470;2023-04-27T00:13:03;96095.91;;;7.48;63.60
44751;BME280;30477;48.224;11.470;2023-04-27T00:15:28;96096.72;;;7.48;63.67
44751;BME280;30477;48.224;11.470;2023-04-27T00:17:54;96087.72;;;7.43;63.70
44751;BME280;30477;48.224;11.470;2023-04-27T00:20:19;96092.31;;;7.39;63.97
44751;BME280;30477;48.224;11.470;2023-04-27T00:22:44;96084.31;;;7.42;64.14
44751;BME280;30477;48.224;11.470;2023-04-27T00:25:10;96089.59;;;7.41;63.98
44751;BME280;30477;48.224;11.470;2023-04-27T00:27:35;96076.00;;;7.39;64.01
44751;BME280;30477;48.224;11.470;2023-04-27T00:30:01;96077.56;;;7.30;64.13
44751;BME280;30477;48.224;11.470;2023-04-27T00:32:26;96075.09;;;7.28;64.26
44751;BME280;30477;48.224;11.470;2023-04-27T00:34:51;96078.84;;;7.36;64.55
44751;BME280;30477;48.224;11.470;2023-04-27T00:37:16;96086.09;;;7.42;64.72
44751;BME280;30477;48.224;11.470;2023-04-27T00:39:42;96081.63;;;7.44;64.87
44751;BME280;30477;48.224;11.470;2023-04-27T00:42:08;96079.63;;;7.47;64.66
44751;BME280;30477;48.224;11.470;2023-04-27T00:44:37;96081.28;;;7.48;64.63
44751;BME280;30477;48.224;11.470;2023-04-27T00:47:02;96075.78;;;7.42;64.72
44751;BME280;30477;48.224;11.470;2023-04-27T00:49:27;96074.72;;;7.44;64.72
44751;BME280;30477;48.224;11.470;2023-04-27T00:51:54;96073.66;;;7.47;64.71
44751;BME280;30477;48.224;11.470;2023-04-27T00:54:19;96085.84;;;7.45;64.51
44751;BME280;30477;48.224;11.470;2023-04-27T00:56:51;96085.03;;;7.44;64.45
44751;BME280;30477;48.224;11.470;2023-04-27T00:59:17;96084.22;;;7.44;64.38
44751;BME280;30477;48.224;11.470;2023-04-27T01:01:43;96083.50;;;7.42;64.18
44751;BME280;30477;48.224;11.470;2023-04-27T01:04:08;96080.81;;;7.43;64.01
44751;BME280;30477;48.224;11.470;2023-04-27T01:06:33;96078.09;;;7.45;63.88
44751;BME280;30477;48.224;11.470;2023-04-27T01:08:59;96077.19;;;7.46;63.72
44751;BME280;30477;48.224;11.470;2023-04-27T01:11:24;96079.63;;;7.47;63.79
44751;BME280;30477;48.224;11.470;2023-04-27T01:13:50;96082.91;;;7.49;63.72
44751;BME280;30477;48.224;11.470;2023-04-27T01:16:16;96084.91;;;7.46;63.55
44751;BME280;30477;48.224;11.470;2023-04-27T01:18:41;96076.22;;;7.47;63.91
44751;BME280;30477;48.224;11.470;2023-04-27T01:21:06;96078.84;;;7.36;63.72
44751;BME280;30477;48.224;11.470;2023-04-27T01:23:32;96084.09;;;7.34;64.19
44751;BME280;30477;48.224;11.470;2023-04-27T01:25:57;96081.88;;;7.29;64.23
44751;BME280;30477;48.224;11.470;2023-04-27T01:28:22;96082.69;;;7.30;64.36
44751;BME280;30477;48.224;11.470;2023-04-27T01:30:47;96086.81;;;7.21;64.47
44751;BME280;30477;48.224;11.470;2023-04-27T01:33:13;96082.84;;;7.17;64.80
44751;BME280;30477;48.224;11.470;2023-04-27T01:35:38;96085.31;;;7.19;64.86
44751;BME280;30477;48.224;11.470;2023-04-27T01:38:03;96079.09;;;7.21;65.04
44751;BME280;30477;48.224;11.470;2023-04-27T01:40:29;96080.50;;;7.25;64.65
44751;BME280;30477;48.224;11.470;2023-04-27T01:42:54;96090.44;;;7.19;64.89
44751;BME280;30477;48.224;11.470;2023-04-27T01:45:20;96081.56;;;7.23;65.09
44751;BME280;30477;48.224;11.470;2023-04-27T01:47:45;96085.75;;;7.24;64.90
44751;BME280;30477;48.224;11.470;2023-04-27T01:50:10;96082.38;;;7.23;64.93
44751;BME280;30477;48.224;11.470;2023-04-27T01:52:35;96090.81;;;7.14;64.67
44751;BME280;30477;48.224;11.470;2023-04-27T01:55:01;96093.50;;;7.13;65.04
44751;BME280;30477;48.224;11.470;2023-04-27T01:57:26;96089.53;;;6.97;64.84
44751;BME280;30477;48.224;11.470;2023-04-27T01:59:51;96089.63;;;6.96;65.20
44751;BME280;30477;48.224;11.470;2023-04-27T02:02:17;96090.56;;;6.95;65.23
44751;BME280;30477;48.224;11.470;2023-04-27T02:04:42;96094.06;;;6.94;65.76
44751;BME280;30477;48.224;11.470;2023-04-27T02:07:09;96091.72;;;6.90;65.20
44751;BME280;30477;48.224;11.470;2023-04-27T02:09:34;96098.03;;;6.86;65.19
44751;BME280;30477;48.224;11.470;2023-04-27T02:11:59;96097.22;;;6.75;65.23
44751;BME280;30477;48.224;11.470;2023-04-27T02:14:25;96094.16;;;6.69;65.61
44751;BME280;30477;48.224;11.470;2023-04-27T02:16:51;96093.34;;;6.69;65.46
44751;BME280;30477;48.224;11.470;2023-04-27T02:19:16;96098.75;;;6.66;65.37
44751;BME280;30477;48.224;11.470;2023-04-27T02:21:41;96107.38;;;6.65;65.48
44751;BME280;30477;48.224;11.470;2023-04-27T02:24:06;96096.63;;;6.71;65.28
44751;BME280;30477;48.224;11.470;2023-04-27T02:26:31;96093.59;;;6.66;64.89
44751;BME280;30477;48.224;11.470;2023-04-27T02:28:57;96098.28;;;6.72;65.03
44751;BME280;30477;48.224;11.470;2023-04-27T02:31:22;96091.72;;;6.68;64.60
44751;BME280;30477;48.224;11.470;2023-04-27T02:33:47;96097.91;;;6.65;64.77
44751;BME280;30477;48.224;11.470;2023-04-27T02:36:13;96094.75;;;6.62;64.59
44751;BME280;30477;48.224;11.470;2023-04-27T02:38:38;96104.78;;;6.54;64.65
44751;BME280;30477;48.224;11.470;2023-04-27T02:41:03;96097.88;;;6.54;64.75
44751;BME280;30477;48.224;11.470;2023-04-27T02:43:28;96106.56;;;6.53;64.72
44751;BME280;30477;48.224;11.470;2023-04-27T02:45:53;96104.78;;;6.54;64.74
44751;BME280;30477;48.224;11.470;2023-04-27T02:48:19;96104.56;;;6.57;64.95
44751;BME280;30477;48.224;11.470;2023-04-27T02:50:44;96103.75;;;6.56;64.67
44751;BME280;30477;48.224;11.470;2023-04-27T02:53:10;96104.56;;;6.57;64.99
44751;BME280;30477;48.224;11.470;2023-04-27T02:55:36;96103.38;;;6.49;64.89
44751;BME280;30477;48.224;11.470;2023-04-27T02:58:01;96102.19;;;6.42;64.94
44751;BME280;30477;48.224;11.470;2023-04-27T03:00:26;96109.66;;;6.34;64.89
44751;BME280;30477;48.224;11.470;2023-04-27T03:02:52;96103.69;;;6.34;65.51
44751;BME280;30477;48.224;11.470;2023-04-27T03:05:17;96101.44;;;6.29;65.52
44751;BME280;30477;48.224;11.470;2023-04-27T03:07:42;96101.78;;;6.24;65.57
44751;BME280;30477;48.224;11.470;2023-04-27T03:10:08;96103.06;;;6.19;65.73
44751;BME280;30477;48.224;11.470;2023-04-27T03:12:33;96106.44;;;6.19;66.22
44751;BME280;30477;48.224;11.470;2023-04-27T03:14:59;96100.03;;;6.25;66.32
44751;BME280;30477;48.224;11.470;2023-04-27T03:17:25;96111.91;;;6.15;66.20
44751;BME280;30477;48.224;11.470;2023-04-27T03:19:50;96112.25;;;6.10;66.41
44751;BME280;30477;48.224;11.470;2023-04-27T03:22:15;96121.13;;;6.06;66.52
44751;BME280;30477;48.224;11.470;2023-04-27T03:24:40;96113.84;;;6.00;66.40
44751;BME280;30477;48.224;11.470;2023-04-27T03:27:06;96119.72;;;5.89;66.73
44751;BME280;30477;48.224;11.470;2023-04-27T03:29:32;96126.00;;;5.85;66.50
44751;BME280;30477;48.224;11.470;2023-04-27T03:31:57;96121.03;;;5.70;66.76
44751;BME280;30477;48.224;11.470;2023-04-27T03:34:22;96126.53;;;5.77;66.99
44751;BME280;30477;48.224;11.470;2023-04-27T03:36:47;96129.19;;;5.88;67.08
44751;BME280;30477;48.224;11.470;2023-04-27T03:39:13;96136.56;;;5.93;67.13
44751;BME280;30477;48.224;11.470;2023-04-27T03:41:38;96128.38;;;5.88;67.24
44751;BME280;30477;48.224;11.470;2023-04-27T03:44:03;96130.63;;;5.93;67.15
44751;BME280;30477;48.224;11.470;2023-04-27T03:46:29;96126.28;;;5.93;67.26
44751;BME280;30477;48.224;11.470;2023-04-27T03:48:54;96124.38;;;5.84;67.23
44751;BME280;30477;48.224;11.470;2023-04-27T03:51:19;96126.00;;;5.85;67.41
44751;BME280;30477;48.224;11.470;2023-04-27T03:53:44;96127.16;;;5.81;67.47
44751;BME280;30477;48.224;11.470;2023-04-27T03:56:10;96128.91;;;5.80;67.71
44751;BME280;30477;48.224;11.470;2023-04-27T03:58:35;96136.09;;;5.75;67.51
44751;BME280;30477;48.224;11.470;2023-04-27T04:01:01;96140.84;;;5.68;67.57
44751;BME280;30477;48.224;11.470;2023-04-27T04:03:26;96150.69;;;5.75;67.85
44751;BME280;30477;48.224;11.470;2023-04-27T04:05:51;96143.19;;;5.84;67.88
44751;BME280;30477;48.224;11.470;2023-04-27T04:08:16;96143.38;;;5.81;67.85
44751;BME280;30477;48.224;11.470;2023-04-27T04:10:42;96151.59;;;5.86;68.02
44751;BME280;30477;48.224;11.470;2023-04-27T04:13:07;96147.88;;;5.90;67.94
44751;BME280;30477;48.224;11.470;2023-04-27T04:15:32;96150.31;;;5.92;67.82
44751;BME280;30477;48.224;11.470;2023-04-27T04:17:57;96155.59;;;5.90;68.18
44751;BME280;30477;48.224;11.470;2023-04-27T04:20:23;96165.13;;;6.01;68.03
44751;BME280;30477;48.224;11.470;2023-04-27T04:22:48;96168.94;;;5.96;68.17
44751;BME280;30477;48.224;11.470;2023-04-27T04:25:13;96171.72;;;5.93;68.03
44751;BME280;30477;48.224;11.470;2023-04-27T04:27:39;96164.63;;;5.96;68.39
44751;BME280;30477;48.224;11.470;2023-04-27T04:30:05;96171.09;;;6.02;68.22
44751;BME280;30477;48.224;11.470;2023-04-27T04:32:31;96165.84;;;6.03;68.42
44751;BME280;30477;48.224;11.470;2023-04-27T04:34:57;96178.31;;;5.97;68.05
44751;BME280;30477;48.224;11.470;2023-04-27T04:37:23;96174.81;;;5.85;68.29
44751;BME280;30477;48.224;11.470;2023-04-27T04:39:48;96176.13;;;5.90;68.64
44751;BME280;30477;48.224;11.470;2023-04-27T04:42:13;96183.81;;;6.03;68.63
44751;BME280;30477;48.224;11.470;2023-04-27T04:44:38;96179.06;;;6.10;68.50
44751;BME280;30477;48.224;11.470;2023-04-27T04:47:04;96179.88;;;6.10;68.75
44751;BME280;30477;48.224;11.470;2023-04-27T04:49:30;96177.25;;;6.23;68.77
44751;BME280;30477;48.224;11.470;2023-04-27T04:51:55;96175.31;;;6.38;68.77
44751;BME280;30477;48.224;11.470;2023-04-27T04:54:20;96182.81;;;6.41;68.56
44751;BME280;30477;48.224;11.470;2023-04-27T04:56:46;96183.03;;;6.38;68.27
44751;BME280;30477;48.224;11.470;2023-04-27T04:59:11;96186.66;;;6.36;68.49
44751;BME280;30477;48.224;11.470;2023-04-27T05:01:36;96191.34;;;6.42;68.55
44751;BME280;30477;48.224;11.470;2023-04-27T05:04:01;96196.16;;;6.46;68.57
44751;BME280;30477;48.224;11.470;2023-04-27T05:06:27;96190.31;;;6.44;68.55
44751;BME280;30477;48.224;11.470;2023-04-27T05:08:52;96189.38;;;6.45;68.69
44751;BME280;30477;48.224;11.470;2023-04-27T05:11:17;96193.97;;;6.53;68.93
44751;BME280;30477;48.224;11.470;2023-04-27T05:13:42;96195.06;;;6.62;68.92
44751;BME280;30477;48.224;11.470;2023-04-27T05:16:08;96181.97;;;6.65;68.89
44751;BME280;30477;48.224;11.470;2023-04-27T05:18:33;96183.81;;;6.63;68.79
44751;BME280;30477;48.224;11.470;2023-04-27T05:20:58;96189.22;;;6.71;68.81
44751;BME280;30477;48.224;11.470;2023-04-27T05:23:24;96195.78;;;6.75;68.75
44751;BME280;30477;48.224;11.470;2023-04-27T05:25:49;96182.13;;;6.86;68.86
44751;BME280;30477;48.224;11.470;2023-04-27T05:28:14;96181.31;;;6.97;68.51
44751;BME280;30477;48.224;11.470;2023-04-27T05:30:40;96174.78;;;7.04;68.38
44751;BME280;30477;48.224;11.470;2023-04-27T05:33:05;96175.75;;;7.14;68.35
44751;BME280;30477;48.224;11.470;2023-04-27T05:35:32;96186.03;;;7.25;68.47
44751;BME280;30477;48.224;11.470;2023-04-27T05:37:57;96189.56;;;7.36;68.26
44751;BME280;30477;48.224;11.470;2023-04-27T05:40:23;96193.66;;;7.38;68.27
44751;BME280;30477;48.224;11.470;2023-04-27T05:42:48;96200.19;;;7.42;67.81
44751;BME280;30477;48.224;11.470;2023-04-27T05:45:13;96205.09;;;7.45;67.64
44751;BME280;30477;48.224;11.470;2023-04-27T05:47:39;96214.38;;;7.59;67.73
44751;BME280;30477;48.224;11.470;2023-04-27T05:50:04;96214.84;;;7.64;67.28
44751;BME280;30477;48.224;11.470;2023-04-27T05:52:30;96211.44;;;7.64;66.71
44751;BME280;30477;48.224;11.470;2023-04-27T05:54:56;96213.06;;;7.53;67.02
44751;BME280;30477;48.224;11.470;2023-04-27T05:57:22;96207.09;;;7.53;66.95
44751;BME280;30477;48.224;11.470;2023-04-27T05:59:47;96207.59;;;7.58;67.44
44751;BME280;30477;48.224;11.470;2023-04-27T06:02:13;96211.28;;;7.77;67.52
44751;BME280;30477;48.224;11.470;2023-04-27T06:04:38;96210.03;;;7.71;67.23
44751;BME280;30477;48.224;11.470;2023-04-27T06:07:06;96208.16;;;7.62;67.38
44751;BME280;30477;48.224;11.470;2023-04-27T06:09:32;96207.56;;;7.69;67.80
44751;BME280;30477;48.224;11.470;2023-04-27T06:11:57;96198.91;;;7.82;67.76
44751;BME280;30477;48.224;11.470;2023-04-27T06:14:23;96195.69;;;7.89;67.55
44751;BME280;30477;48.224;11.470;2023-04-27T06:16:48;96200.97;;;7.99;67.55
44751;BME280;30477;48.224;11.470;2023-04-27T06:19:14;96209.72;;;8.19;67.34
44751;BME280;30477;48.224;11.470;2023-04-27T06:21:39;96211.44;;;8.30;67.14
44751;BME280;30477;48.224;11.470;2023-04-27T06:24:04;96212.94;;;8.32;66.39
44751;BME280;30477;48.224;11.470;2023-04-27T06:26:30;96209.66;;;8.42;66.37
44751;BME280;30477;48.224;11.470;2023-04-27T06:28:55;96220.75;;;8.53;66.20
44751;BME280;30477;48.224;11.470;2023-04-27T06:31:20;96213.28;;;8.50;65.81
44751;BME280;30477;48.224;11.470;2023-04-27T06:33:45;96214.91;;;8.51;66.31
44751;BME280;30477;48.224;11.470;2023-04-27T06:36:11;96211.81;;;8.58;66.25
44751;BME280;30477;48.224;11.470;2023-04-27T06:38:36;96214.81;;;8.74;66.23
44751;BME280;30477;48.224;11.470;2023-04-27T06:41:01;96220.41;;;8.79;65.81
44751;BME280;30477;48.224;11.470;2023-04-27T06:43:27;96217.09;;;8.88;65.51
44751;BME280;30477;48.224;11.470;2023-04-27T06:45:52;96213.03;;;8.96;65.08
44751;BME280;30477;48.224;11.470;2023-04-27T06:48:17;96217.13;;;8.98;64.74
44751;BME280;30477;48.224;11.470;2023-04-27T06:50:43;96217.72;;;9.02;64.69
44751;BME280;30477;48.224;11.470;2023-04-27T06:53:08;96221.97;;;9.12;64.37
44751;BME280;30477;48.224;11.470;2023-04-27T06:55:34;96211.06;;;9.30;63.92
44751;BME280;30477;48.224;11.470;2023-04-27T06:57:59;96214.84;;;9.26;63.44
44751;BME280;30477;48.224;11.470;2023-04-27T07:00:25;96211.91;;;9.30;62.69
44751;BME280;30477;48.224;11.470;2023-04-27T07:02:51;96215.91;;;9.23;63.17
44751;BME280;30477;48.224;11.470;2023-04-27T07:05:17;96225.13;;;9.16;62.60
44751;BME280;30477;48.224;11.470;2023-04-27T07:07:43;96216.69;;;9.14;61.90
44751;BME280;30477;48.224;11.470;2023-04-27T07:10:08;96217.63;;;9.13;61.12
44751;BME280;30477;48.224;11.470;2023-04-27T07:12:34;96219.97;;;9.16;61.00
44751;BME280;30477;48.224;11.470;2023-04-27T07:14:59;96222.22;;;9.30;61.17
44751;BME280;30477;48.224;11.470;2023-04-27T07:17:24;96217.16;;;9.50;61.07
44751;BME280;30477;48.224;11.470;2023-04-27T07:19:50;96223.19;;;9.70;60.93
44751;BME280;30477;48.224;11.470;2023-04-27T07:22:15;96227.56;;;9.69;60.39
44751;BME280;30477;48.224;11.470;2023-04-27T07:24:40;96214.97;;;9.55;59.76
44751;BME280;30477;48.224;11.470;2023-04-27T07:27:05;96229.50;;;9.46;59.57
44751;BME280;30477;48.224;11.470;2023-04-27T07:29:31;96215.50;;;9.49;59.62
44751;BME280;30477;48.224;11.470;2023-04-27T07:31:56;96222.19;;;9.51;59.45
44751;BME280;30477;48.224;11.470;2023-04-27T07:34:22;96219.63;;;9.61;59.63
44751;BME280;30477;48.224;11.470;2023-04-27T07:36:47;96223.53;;;9.77;59.68
44751;BME280;30477;48.224;11.470;2023-04-27T07:39:12;96226.22;;;9.85;58.81
44751;BME280;30477;48.224;11.470;2023-04-27T07:41:38;96220.00;;;9.97;58.93
44751;BME280;30477;48.224;11.470;2023-04-27T07:44:03;96223.44;;;10.07;58.40
44751;BME280;30477;48.224;11.470;2023-04-27T07:46:28;96217.16;;;10.50;57.88
44751;BME280;30477;48.224;11.470;2023-04-27T07:48:55;96216.44;;;10.87;57.48
44751;BME280;30477;48.224;11.470;2023-04-27T07:51:23;96211.38;;;10.95;56.60
44751;BME280;30477;48.224;11.470;2023-04-27T07:53:49;96212.44;;;11.22;56.34
44751;BME280;30477;48.224;11.470;2023-04-27T07:56:14;96215.38;;;11.47;55.79
44751;BME280;30477;48.224;11.470;2023-04-27T07:58:39;96215.31;;;11.56;55.91
44751;BME280;30477;48.224;11.470;2023-04-27T08:01:05;96212.50;;;11.77;55.32
44751;BME280;30477;48.224;11.470;2023-04-27T08:03:30;96221.03;;;11.70;54.71
44751;BME280;30477;48.224;11.470;2023-04-27T08:05:55;96221.56;;;11.36;53.53
44751;BME280;30477;48.224;11.470;2023-04-27T08:08:21;96232.91;;;11.15;52.75
44751;BME280;30477;48.224;11.470;2023-04-27T08:10:46;96225.84;;;10.88;52.83
44751;BME280;30477;48.224;11.470;2023-04-27T08:13:12;96227.22;;;10.83;53.14
44751;BME280;30477;48.224;11.470;2023-04-27T08:15:37;96231.13;;;11.16;53.22
44751;BME280;30477;48.224;11.470;2023-04-27T08:18:02;96228.38;;;11.27;52.93
44751;BME280;30477;48.224;11.470;2023-04-27T08:20:27;96225.66;;;11.19;52.57
44751;BME280;30477;48.224;11.470;2023-04-27T08:22:53;96227.25;;;11.40;52.55
44751;BME280;30477;48.224;11.470;2023-04-27T08:25:18;96231.06;;;11.45;51.93
44751;BME280;30477;48.224;11.470;2023-04-27T08:27:43;96225.63;;;11.38;51.13
44751;BME280;30477;48.224;11.470;2023-04-27T08:30:09;96227.94;;;11.42;50.77
44751;BME280;30477;48.224;11.470;2023-04-27T08:32:34;96232.28;;;11.51;50.98
44751;BME280;30477;48.224;11.470;2023-04-27T08:34:59;96224.63;;;11.49;50.35
44751;BME280;30477;48.224;11.470;2023-04-27T08:37:25;96228.75;;;11.79;49.85
44751;BME280;30477;48.224;11.470;2023-04-27T08:39:50;96228.63;;;11.71;49.59
44751;BME280;30477;48.224;11.470;2023-04-27T08:42:15;96225.38;;;11.69;49.65
44751;BME280;30477;48.224;11.470;2023-04-27T08:44:41;96227.34;;;11.95;49.27
44751;BME280;30477;48.224;11.470;2023-04-27T08:47:06;96222.66;;;12.26;49.40
44751;BME280;30477;48.224;11.470;2023-04-27T08:49:33;96232.31;;;12.70;48.27
44751;BME280;30477;48.224;11.470;2023-04-27T08:51:58;96222.03;;;12.60;47.72
44751;BME280;30477;48.224;11.470;2023-04-27T08:54:23;96223.16;;;13.02;48.03
44751;BME280;30477;48.224;11.470;2023-04-27T08:56:48;96217.91;;;13.37;47.00
44751;BME280;30477;48.224;11.470;2023-04-27T08:59:14;96214.63;;;13.35;46.02
44751;BME280;30477;48.224;11.470;2023-04-27T09:01:43;96215.69;;;12.98;45.32
44751;BME280;30477;48.224;11.470;2023-04-27T09:04:08;96218.69;;;13.12;46.40
44751;BME280;30477;48.224;11.470;2023-04-27T09:06:35;96214.31;;;13.65;46.37
44751;BME280;30477;48.224;11.470;2023-04-27T09:09:01;96207.06;;;13.76;46.25
44751;BME280;30477;48.224;11.470;2023-04-27T09:11:27;96215.06;;;13.49;45.70
44751;BME280;30477;48.224;11.470;2023-04-27T09:13:53;96208.81;;;13.33;45.33
44751;BME280;30477;48.224;11.470;2023-04-27T09:16:22;96217.78;;;13.21;45.64
44751;BME280;30477;48.224;11.470;2023-04-27T09:18:47;96212.75;;;13.02;45.42
44751;BME280;30477;48.224;11.470;2023-04-27T09:21:20;96211.09;;;13.36;46.18
44751;BME280;30477;48.224;11.470;2023-04-27T09:23:45;96211.28;;;13.69;45.94
44751;BME280;30477;48.224;11.470;2023-04-27T09:26:17;96204.22;;;14.04;46.15
44751;BME280;30477;48.224;11.470;2023-04-27T09:28:46;96200.09;;;14.44;46.44
44751;BME280;30477;48.224;11.470;2023-04-27T09:31:11;96204.91;;;14.14;44.12
44751;BME280;30477;48.224;11.470;2023-04-27T09:33:36;96195.97;;;13.66;44.11
44751;BME280;30477;48.224;11.470;2023-04-27T09:36:03;96192.03;;;13.96;44.78
44751;BME280;30477;48.224;11.470;2023-04-27T09:38:29;96190.69;;;14.51;44.72
44751;BME280;30477;48.224;11.470;2023-04-27T09:40:55;96192.34;;;14.93;44.53
44751;BME280;30477;48.224;11.470;2023-04-27T09:43:20;96189.72;;;14.60;42.28
44751;BME280;30477;48.224;11.470;2023-04-27T09:45:47;96191.72;;;14.08;43.10
44751;BME280;30477;48.224;11.470;2023-04-27T09:48:12;96194.59;;;13.88;43.65
44751;BME280;30477;48.224;11.470;2023-04-27T09:50:38;96198.97;;;13.88;43.76
44751;BME280;30477;48.224;11.470;2023-04-27T09:53:08;96189.34;;;14.31;44.01
44751;BME280;30477;48.224;11.470;2023-04-27T09:58:08;96187.91;;;13.86;43.33
44751;BME280;30477;48.224;11.470;2023-04-27T10:06:03;96186.34;;;14.01;44.04
44751;BME280;30477;48.224;11.470;2023-04-27T10:08:35;96182.47;;;14.30;44.50
44751;BME280;30477;48.224;11.470;2023-04-27T10:11:11;96170.13;;;14.15;44.48
44751;BME280;30477;48.224;11.470;2023-04-27T10:13:36;96170.47;;;14.29;43.70
44751;BME280;30477;48.224;11.470;2023-04-27T10:16:14;96172.06;;;14.13;44.03
44751;BME280;30477;48.224;11.470;2023-04-27T10:18:49;96164.22;;;14.05;44.20
44751;BME280;30477;48.224;11.470;2023-04-27T10:21:14;96163.56;;;14.03;44.09
44751;BME280;30477;48.224;11.470;2023-04-27T10:23:47;96174.84;;;13.69;44.24
44751;BME280;30477;48.224;11.470;2023-04-27T10:26:12;96169.25;;;13.56;44.82
44751;BME280;30477;48.224;11.470;2023-04-27T10:28:45;96165.63;;;13.83;45.39
44751;BME280;30477;48.224;11.470;2023-04-27T10:31:25;96160.53;;;14.32;45.22
44751;BME280;30477;48.224;11.470;2023-04-27T10:33:51;96162.31;;;14.40;44.13
44751;BME280;30477;48.224;11.470;2023-04-27T10:36:16;96163.69;;;14.60;43.97
44751;BME280;30477;48.224;11.470;2023-04-27T10:38:41;96161.22;;;14.67;44.25
44751;BME280;30477;48.224;11.470;2023-04-27T10:41:12;96160.06;;;14.53;44.50
44751;BME280;30477;48.224;11.470;2023-04-27T10:43:38;96153.88;;;14.54;43.19
44751;BME280;30477;48.224;11.470;2023-04-27T10:46:07;96155.81;;;14.52;43.61
44751;BME280;30477;48.224;11.470;2023-04-27T10:48:33;96157.97;;;14.40;43.50
44751;BME280;30477;48.224;11.470;2023-04-27T10:50:59;96157.16;;;14.65;43.06
44751;BME280;30477;48.224;11.470;2023-04-27T10:53:25;96158.28;;;15.03;42.84
44751;BME280;30477;48.224;11.470;2023-04-27T10:55:53;96154.84;;;15.11;42.08
44751;BME280;30477;48.224;11.470;2023-04-27T10:58:21;96154.16;;;15.25;42.13
44751;BME280;30477;48.224;11.470;2023-04-27T11:00:47;96144.81;;;15.39;42.47
44751;BME280;30477;48.224;11.470;2023-04-27T11:03:13;96149.91;;;15.32;43.45
44751;BME280;30477;48.224;11.470;2023-04-27T11:05:40;96142.66;;;15.59;43.39
44751;BME280;30477;48.224;11.470;2023-04-27T11:08:07;96145.72;;;15.71;41.55
44751;BME280;30477;48.224;11.470;2023-04-27T11:10:33;96141.00;;;15.58;40.94
44751;BME280;30477;48.224;11.470;2023-04-27T11:13:06;96136.63;;;15.58;40.87
44751;BME280;30477;48.224;11.470;2023-04-27T11:15:40;96150.09;;;15.70;40.34
44751;BME280;30477;48.224;11.470;2023-04-27T11:18:06;96145.16;;;15.92;41.37
44751;BME280;30477;48.224;11.470;2023-04-27T11:20:31;96143.47;;;15.99;41.34
44751;BME280;30477;48.224;11.470;2023-04-27T11:22:56;96136.50;;;16.14;40.85
44751;BME280;30477;48.224;11.470;2023-04-27T11:25:27;96142.09;;;16.11;40.40
44751;BME280;30477;48.224;11.470;2023-04-27T11:27:53;96145.72;;;15.71;40.81
44751;BME280;30477;48.224;11.470;2023-04-27T11:30:19;96145.44;;;15.97;42.20
44751;BME280;30477;48.224;11.470;2023-04-27T11:32:45;96145.16;;;15.92;41.11
44751;BME280;30477;48.224;11.470;2023-04-27T11:35:10;96152.72;;;15.62;40.68
44751;BME280;30477;48.224;11.470;2023-04-27T11:37:36;96151.00;;;15.46;40.94
44751;BME280;30477;48.224;11.470;2023-04-27T11:40:01;96154.69;;;15.60;41.10
44751;BME280;30477;48.224;11.470;2023-04-27T11:42:27;96149.28;;;15.70;40.51
44751;BME280;30477;48.224;11.470;2023-04-27T11:44:53;96158.13;;;15.69;40.54
44751;BME280;30477;48.224;11.470;2023-04-27T11:47:19;96152.72;;;15.62;40.32
44751;BME280;30477;48.224;11.470;2023-04-27T11:49:45;96153.91;;;15.51;40.95
44751;BME280;30477;48.224;11.470;2023-04-27T11:52:11;96150.16;;;15.54;40.64
44751;BME280;30477;48.224;11.470;2023-04-27T11:54:37;96155.31;;;15.70;40.55
44751;BME280;30477;48.224;11.470;2023-04-27T11:57:06;96155.84;;;15.57;40.50
44751;BME280;30477;48.224;11.470;2023-04-27T11:59:32;96160.09;;;15.58;40.60
44751;BME280;30477;48.224;11.470;2023-04-27T12:01:57;96158.63;;;15.56;40.74
44751;BME280;30477;48.224;11.470;2023-04-27T12:04:22;96155.09;;;15.40;40.95
44751;BME280;30477;48.224;11.470;2023-04-27T12:06:47;96152.34;;;15.34;40.94
44751;BME280;30477;48.224;11.470;2023-04-27T12:09:13;96159.03;;;15.36;41.57
44751;BME280;30477;48.224;11.470;2023-04-27T12:11:38;96156.91;;;15.32;41.97
44751;BME280;30477;48.224;11.470;2023-04-27T12:14:03;96151.84;;;15.38;41.78
44751;BME280;30477;48.224;11.470;2023-04-27T12:16:28;96162.22;;;15.55;41.67
44751;BME280;30477;48.224;11.470;2023-04-27T12:18:53;96150.56;;;15.34;40.79
44751;BME280;30477;48.224;11.470;2023-04-27T12:21:19;96151.69;;;15.32;40.69
44751;BME280;30477;48.224;11.470;2023-04-27T12:23:44;96163.94;;;15.23;41.17
44751;BME280;30477;48.224;11.470;2023-04-27T12:26:10;96160.03;;;15.19;41.29
44751;BME280;30477;48.224;11.470;2023-04-27T12:28:35;96159.53;;;15.23;41.74
44751;BME280;30477;48.224;11.470;2023-04-27T12:31:04;96161.31;;;15.31;41.82
44751;BME280;30477;48.224;11.470;2023-04-27T12:33:29;96155.59;;;15.36;41.88
44751;BME280;30477;48.224;11.470;2023-04-27T12:35:54;96148.25;;;15.39;41.45
44751;BME280;30477;48.224;11.470;2023-04-27T12:38:20;96153.41;;;15.56;42.81
44751;BME280;30477;48.224;11.470;2023-04-27T12:40:46;96151.81;;;15.47;41.80
44751;BME280;30477;48.224;11.470;2023-04-27T12:43:11;96151.50;;;15.50;42.34
44751;BME280;30477;48.224;11.470;2023-04-27T12:45:36;96150.84;;;15.48;42.44
44751;BME280;30477;48.224;11.470;2023-04-27T12:48:02;96156.56;;;15.35;42.17
44751;BME280;30477;48.224;11.470;2023-04-27T12:50:27;96154.81;;;15.27;41.69
44751;BME280;30477;48.224;11.470;2023-04-27T12:52:52;96147.66;;;15.29;42.35
44751;BME280;30477;48.224;11.470;2023-04-27T12:55:18;96146.00;;;15.28;42.27